sensor_id;sensor_type;location;lat;lon;timestamp;pressure;altitude;pressure_sealevel;temperature;humidity
69667;BME280;66534;52.370;4.832;2023-04-08T00:00:18;102313.13;;;10.96;100.00
69667;BME280;66534;52.370;4.832;2023-04-08T00:00:49;102310.28;;;10.67;100.00
69667;BME280;66534;52.370;4.832;2023-04-08T00:01:19;102312.00;;;10.68;100.00
69667;BME280;66534;52.370;4.832;2023-04-08T00:01:50;102317.19;;;10.69;100.00
69667;BME280;66534;52.370;4.832;2023-04-08T00:02:21;102312.53;;;10.42;100.00
69667;BME280;66534;52.370;4.832;2023-04-08T00:02:51;102319.13;;;10.16;100.00
69667;BME280;66534;52.370;4.832;2023-04-08T00:03:21;102318.69;;;9.93;100.00
69667;BME280;66534;52.370;4.832;2023-04-08T00:03:52;102321.72;;;9.70;100.00
69667;BME280;66534;52.370;4.832;2023-04-08T00:04:22;102320.13;;;9.60;100.00
69667;BME280;66534;52.370;4.832;2023-04-08T00:04:53;102316.63;;;9.61;100.00
69667;BME280;66534;52.370;4.832;2023-04-08T00:05:23;102313.84;;;9.71;100.00
69667;BME280;66534;52.370;4.832;2023-04-08T00:05:53;102320.91;;;9.65;100.00
69667;BME280;66534;52.370;4.832;2023-04-08T00:06:24;102318.38;;;9.62;100.00
69667;BME280;66534;52.370;4.832;2023-04-08T00:06:56;102324.06;;;9.85;100.00
69667;BME280;66534;52.370;4.832;2023-04-08T00:07:26;102321.13;;;10.02;100.00
69667;BME280;66534;52.370;4.832;2023-04-08T00:07:57;102316.56;;;10.13;100.00
69667;BME280;66534;52.370;4.832;2023-04-08T00:08:27;102318.03;;;10.30;100.00
69667;BME280;66534;52.370;4.832;2023-04-08T00:08:57;102319.38;;;10.49;100.00
69667;BME280;66534;52.370;4.832;2023-04-08T00:09:28;102317.09;;;10.74;100.00
69667;BME280;66534;52.370;4.832;2023-04-08T00:09:58;102314.34;;;10.80;100.00
69667;BME280;66534;52.370;4.832;2023-04-08T00:10:29;102310.81;;;10.81;100.00
69667;BME280;66534;52.370;4.832;2023-04-08T00:10:59;102314.19;;;10.86;100.00
69667;BME280;66534;52.370;4.832;2023-04-08T00:11:29;102313.38;;;10.84;100.00
69667;BME280;66534;52.370;4.832;2023-04-08T00:12:00;102306.53;;;10.79;100.00
69667;BME280;66534;52.370;4.832;2023-04-08T00:12:31;102309.16;;;10.79;100.00
69667;BME280;66534;52.370;4.832;2023-04-08T00:13:02;102313.09;;;10.58;100.00
69667;BME280;66534;52.370;4.832;2023-04-08T00:13:32;102314.06;;;10.52;100.00
69667;BME280;66534;52.370;4.832;2023-04-08T00:14:03;102304.47;;;10.51;100.00
69667;BME280;66534;52.370;4.832;2023-04-08T00:14:33;102312.19;;;10.59;100.00
69667;BME280;66534;52.370;4.832;2023-04-08T00:15:04;102302.66;;;10.53;100.00
69667;BME280;66534;52.370;4.832;2023-04-08T00:15:35;102309.66;;;10.54;100.00
69667;BME280;66534;52.370;4.832;2023-04-08T00:16:06;102313.34;;;10.44;100.00
69667;BME280;66534;52.370;4.832;2023-04-08T00:16:37;102318.66;;;10.42;100.00
69667;BME280;66534;52.370;4.832;2023-04-08T00:17:07;102311.53;;;10.47;100.00
69667;BME280;66534;52.370;4.832;2023-04-08T00:17:38;102312.56;;;10.40;100.00
69667;BME280;66534;52.370;4.832;2023-04-08T00:18:08;102315.97;;;10.44;100.00
69667;BME280;66534;52.370;4.832;2023-04-08T00:18:39;102322.09;;;10.44;100.00
69667;BME280;66534;52.370;4.832;2023-04-08T00:19:10;102316.19;;;10.35;100.00
69667;BME280;66534;52.370;4.832;2023-04-08T00:19:41;102321.47;;;10.33;100.00
69667;BME280;66534;52.370;4.832;2023-04-08T00:20:11;102318.88;;;10.30;100.00
69667;BME280;66534;52.370;4.832;2023-04-08T00:20:42;102317.06;;;10.34;100.00
69667;BME280;66534;52.370;4.832;2023-04-08T00:21:13;102317.97;;;10.33;100.00
69667;BME280;66534;52.370;4.832;2023-04-08T00:21:45;102315.56;;;10.20;100.00
69667;BME280;66534;52.370;4.832;2023-04-08T00:22:16;102321.47;;;10.32;100.00
69667;BME280;66534;52.370;4.832;2023-04-08T00:22:47;102318.94;;;10.29;100.00
69667;BME280;66534;52.370;4.832;2023-04-08T00:23:17;102312.09;;;10.18;100.00
69667;BME280;66534;52.370;4.832;2023-04-08T00:23:50;102315.47;;;10.27;100.00
69667;BME280;66534;52.370;4.832;2023-04-08T00:24:20;102312.94;;;10.20;100.00
69667;BME280;66534;52.370;4.832;2023-04-08T00:24:51;102313.00;;;10.17;100.00
69667;BME280;66534;52.370;4.832;2023-04-08T00:25:21;102315.63;;;10.17;100.00
69667;BME280;66534;52.370;4.832;2023-04-08T00:25:52;102317.25;;;10.25;100.00
69667;BME280;66534;52.370;4.832;2023-04-08T00:26:22;102312.75;;;10.31;100.00
69667;BME280;66534;52.370;4.832;2023-04-08T00:26:52;102315.47;;;10.23;100.00
69667;BME280;66534;52.370;4.832;2023-04-08T00:27:23;102315.41;;;10.30;100.00
69667;BME280;66534;52.370;4.832;2023-04-08T00:27:54;102315.47;;;10.27;100.00
69667;BME280;66534;52.370;4.832;2023-04-08T00:28:25;102316.34;;;10.24;100.00
69667;BME280;66534;52.370;4.832;2023-04-08T00:28:55;102319.56;;;10.40;100.00
69667;BME280;66534;52.370;4.832;2023-04-08T00:29:25;102315.16;;;10.42;100.00
69667;BME280;66534;52.370;4.832;2023-04-08T00:29:56;102317.69;;;10.46;100.00
69667;BME280;66534;52.370;4.832;2023-04-08T00:30:26;102319.41;;;10.47;100.00
69667;BME280;66534;52.370;4.832;2023-04-08T00:30:57;102309.16;;;10.37;100.00
69667;BME280;66534;52.370;4.832;2023-04-08T00:31:27;102313.69;;;10.29;100.00
69667;BME280;66534;52.370;4.832;2023-04-08T00:32:01;102318.94;;;10.29;100.00
69667;BME280;66534;52.370;4.832;2023-04-08T00:32:32;102312.84;;;10.23;100.00
69667;BME280;66534;52.370;4.832;2023-04-08T00:33:02;102319.88;;;10.23;100.00
69667;BME280;66534;52.370;4.832;2023-04-08T00:33:33;102318.84;;;10.32;100.00
69667;BME280;66534;52.370;4.832;2023-04-08T00:34:04;102315.25;;;10.37;100.00
69667;BME280;66534;52.370;4.832;2023-04-08T00:34:34;102313.44;;;10.41;100.00
69667;BME280;66534;52.370;4.832;2023-04-08T00:35:06;102317.78;;;10.40;100.00
69667;BME280;66534;52.370;4.832;2023-04-08T00:35:37;102315.78;;;10.55;100.00
69667;BME280;66534;52.370;4.832;2023-04-08T00:36:07;102320.78;;;10.65;100.00
69667;BME280;66534;52.370;4.832;2023-04-08T00:36:38;102314.16;;;10.47;100.00
69667;BME280;66534;52.370;4.832;2023-04-08T00:37:09;102315.13;;;10.45;100.00
69667;BME280;66534;52.370;4.832;2023-04-08T00:37:39;102310.53;;;10.55;100.00
69667;BME280;66534;52.370;4.832;2023-04-08T00:38:10;102309.59;;;10.57;100.00
69667;BME280;66534;52.370;4.832;2023-04-08T00:38:40;102316.50;;;10.61;100.00
69667;BME280;66534;52.370;4.832;2023-04-08T00:39:11;102311.34;;;10.57;100.00
69667;BME280;66534;52.370;4.832;2023-04-08T00:39:42;102321.69;;;10.64;100.00
69667;BME280;66534;52.370;4.832;2023-04-08T00:40:13;102314.56;;;10.71;100.00
69667;BME280;66534;52.370;4.832;2023-04-08T00:40:43;102312.75;;;10.73;100.00
69667;BME280;66534;52.370;4.832;2023-04-08T00:41:13;102310.19;;;10.70;100.00
69667;BME280;66534;52.370;4.832;2023-04-08T00:41:44;102312.84;;;10.68;100.00
69667;BME280;66534;52.370;4.832;2023-04-08T00:42:15;102306.88;;;10.62;100.00
69667;BME280;66534;52.370;4.832;2023-04-08T00:42:46;102310.38;;;10.61;100.00
69667;BME280;66534;52.370;4.832;2023-04-08T00:43:16;102317.56;;;10.53;100.00
69667;BME280;66534;52.370;4.832;2023-04-08T00:43:50;102320.25;;;10.50;100.00
69667;BME280;66534;52.370;4.832;2023-04-08T00:44:21;102314.16;;;10.47;100.00
69667;BME280;66534;52.370;4.832;2023-04-08T00:44:52;102313.22;;;10.52;100.00
69667;BME280;66534;52.370;4.832;2023-04-08T00:45:22;102314.91;;;10.54;100.00
69667;BME280;66534;52.370;4.832;2023-04-08T00:45:52;102315.69;;;10.59;100.00
69667;BME280;66534;52.370;4.832;2023-04-08T00:46:23;102318.34;;;10.56;100.00
69667;BME280;66534;52.370;4.832;2023-04-08T00:46:53;102320.16;;;10.54;100.00
69667;BME280;66534;52.370;4.832;2023-04-08T00:47:24;102314.94;;;10.53;100.00
69667;BME280;66534;52.370;4.832;2023-04-08T00:47:55;102320.13;;;10.56;100.00
69667;BME280;66534;52.370;4.832;2023-04-08T00:48:25;102314.97;;;10.51;100.00
69667;BME280;66534;52.370;4.832;2023-04-08T00:48:56;102320.19;;;10.53;100.00
69667;BME280;66534;52.370;4.832;2023-04-08T00:49:26;102319.38;;;10.49;100.00
69667;BME280;66534;52.370;4.832;2023-04-08T00:49:57;102325.84;;;10.31;100.00
69667;BME280;66534;52.370;4.832;2023-04-08T00:50:27;102321.31;;;10.41;100.00
69667;BME280;66534;52.370;4.832;2023-04-08T00:50:58;102318.50;;;10.50;100.00
69667;BME280;66534;52.370;4.832;2023-04-08T00:51:28;102317.72;;;10.45;100.00
69667;BME280;66534;52.370;4.832;2023-04-08T00:52:00;102324.03;;;10.35;100.00
69667;BME280;66534;52.370;4.832;2023-04-08T00:52:30;102317.97;;;10.33;100.00
69667;BME280;66534;52.370;4.832;2023-04-08T00:53:01;102322.19;;;10.40;100.00
69667;BME280;66534;52.370;4.832;2023-04-08T00:53:31;102327.63;;;10.31;100.00
69667;BME280;66534;52.370;4.832;2023-04-08T00:54:02;102323.34;;;10.23;100.00
69667;BME280;66534;52.370;4.832;2023-04-08T00:54:36;102325.19;;;10.20;100.00
69667;BME280;66534;52.370;4.832;2023-04-08T00:55:07;102322.63;;;10.15;100.00
69667;BME280;66534;52.370;4.832;2023-04-08T00:55:38;102320.03;;;10.14;100.00
69667;BME280;66534;52.370;4.832;2023-04-08T00:56:08;102319.13;;;10.16;100.00
69667;BME280;66534;52.370;4.832;2023-04-08T00:56:39;102324.59;;;10.04;100.00
69667;BME280;66534;52.370;4.832;2023-04-08T00:57:09;102317.63;;;10.03;100.00
69667;BME280;66534;52.370;4.832;2023-04-08T00:57:40;102321.94;;;10.06;100.00
69667;BME280;66534;52.370;4.832;2023-04-08T00:58:11;102318.50;;;10.02;100.00
69667;BME280;66534;52.370;4.832;2023-04-08T00:58:43;102323.03;;;9.95;100.00
69667;BME280;66534;52.370;4.832;2023-04-08T00:59:13;102322.97;;;9.97;100.00
69667;BME280;66534;52.370;4.832;2023-04-08T00:59:44;102324.16;;;9.81;100.00
69667;BME280;66534;52.370;4.832;2023-04-08T01:00:14;102327.03;;;9.65;100.00
69667;BME280;66534;52.370;4.832;2023-04-08T01:00:48;102325.34;;;9.63;100.00
69667;BME280;66534;52.370;4.832;2023-04-08T01:01:30;102327.03;;;9.65;100.00
69667;BME280;66534;52.370;4.832;2023-04-08T01:03:17;102321.72;;;9.70;100.00
69667;BME280;66534;52.370;4.832;2023-04-08T01:03:56;102324.19;;;9.78;100.00
69667;BME280;66534;52.370;4.832;2023-04-08T01:04:29;102320.63;;;9.83;100.00
69667;BME280;66534;52.370;4.832;2023-04-08T01:05:12;102324.09;;;9.84;100.00
69667;BME280;66534;52.370;4.832;2023-04-08T01:05:55;102327.72;;;9.77;100.00
69667;BME280;66534;52.370;4.832;2023-04-08T01:06:40;102325.38;;;9.60;100.00
69667;BME280;66534;52.370;4.832;2023-04-08T01:07:24;102322.13;;;9.45;100.00
69667;BME280;66534;52.370;4.832;2023-04-08T01:07:57;102320.22;;;9.55;100.00
69667;BME280;66534;52.370;4.832;2023-04-08T01:08:30;102320.34;;;9.47;100.00
69667;BME280;66534;52.370;4.832;2023-04-08T01:09:04;102326.59;;;9.39;100.00
69667;BME280;66534;52.370;4.832;2023-04-08T01:09:37;102326.72;;;9.31;100.00
69667;BME280;66534;52.370;4.832;2023-04-08T01:10:11;102325.63;;;9.44;100.00
69667;BME280;66534;52.370;4.832;2023-04-08T01:10:46;102327.25;;;9.53;100.00
69667;BME280;66534;52.370;4.832;2023-04-08T01:11:21;102320.97;;;9.63;100.00
69667;BME280;66534;52.370;4.832;2023-04-08T01:11:52;102330.38;;;9.75;100.00
69667;BME280;66534;52.370;4.832;2023-04-08T01:12:26;102325.13;;;9.75;100.00
69667;BME280;66534;52.370;4.832;2023-04-08T01:13:00;102323.25;;;9.83;100.00
69667;BME280;66534;52.370;4.832;2023-04-08T01:13:35;102332.06;;;9.78;100.00
69667;BME280;66534;52.370;4.832;2023-04-08T01:14:10;102327.78;;;9.72;100.00
69667;BME280;66534;52.370;4.832;2023-04-08T01:14:45;102328.81;;;9.63;100.00
69667;BME280;66534;52.370;4.832;2023-04-08T01:15:17;102331.28;;;9.72;100.00
69667;BME280;66534;52.370;4.832;2023-04-08T01:15:48;102328.84;;;9.62;100.00
69667;BME280;66534;52.370;4.832;2023-04-08T01:16:19;102325.38;;;9.60;100.00
69667;BME280;66534;52.370;4.832;2023-04-08T01:16:56;102329.59;;;9.70;100.00
69667;BME280;66534;52.370;4.832;2023-04-08T01:17:29;102332.22;;;9.68;100.00
69667;BME280;66534;52.370;4.832;2023-04-08T01:18:02;102333.00;;;9.73;100.00
69667;BME280;66534;52.370;4.832;2023-04-08T01:18:36;102324.19;;;9.79;100.00
69667;BME280;66534;52.370;4.832;2023-04-08T01:19:08;102328.66;;;9.74;100.00
69667;BME280;66534;52.370;4.832;2023-04-08T01:19:50;102329.06;;;9.50;100.00
69667;BME280;66534;52.370;4.832;2023-04-08T01:20:21;102323.97;;;9.39;100.00
69667;BME280;66534;52.370;4.832;2023-04-08T01:20:54;102323.16;;;9.35;100.00
69667;BME280;66534;52.370;4.832;2023-04-08T01:21:25;102330.97;;;9.38;100.00
69667;BME280;66534;52.370;4.832;2023-04-08T01:22:01;102325.84;;;9.32;100.00
69667;BME280;66534;52.370;4.832;2023-04-08T01:24:12;102329.44;;;9.23;100.00
69667;BME280;66534;52.370;4.832;2023-04-08T01:24:50;102325.16;;;9.18;100.00
69667;BME280;66534;52.370;4.832;2023-04-08T01:25:33;102326.06;;;9.17;100.00
69667;BME280;66534;52.370;4.832;2023-04-08T01:26:09;102326.13;;;9.11;100.00
69667;BME280;66534;52.370;4.832;2023-04-08T01:26:42;102327.16;;;9.01;100.00
69667;BME280;66534;52.370;4.832;2023-04-08T01:27:13;102330.75;;;8.93;100.00
69667;BME280;66534;52.370;4.832;2023-04-08T01:27:46;102331.81;;;8.80;100.00
69667;BME280;66534;52.370;4.832;2023-04-08T01:28:18;102335.16;;;8.90;100.00
69667;BME280;66534;52.370;4.832;2023-04-08T01:28:50;102336.88;;;8.92;100.00
69667;BME280;66534;52.370;4.832;2023-04-08T01:29:24;102336.72;;;9.05;100.00
69667;BME280;66534;52.370;4.832;2023-04-08T01:29:55;102335.81;;;9.06;100.00
69667;BME280;66534;52.370;4.832;2023-04-08T01:30:27;102332.31;;;9.08;100.00
69667;BME280;66534;52.370;4.832;2023-04-08T01:30:59;102329.63;;;9.13;100.00
69667;BME280;66534;52.370;4.832;2023-04-08T01:31:32;102339.03;;;9.25;100.00
69667;BME280;66534;52.370;4.832;2023-04-08T01:32:06;102334.78;;;9.17;100.00
69667;BME280;66534;52.370;4.832;2023-04-08T01:32:37;102335.91;;;8.98;100.00
69667;BME280;66534;52.370;4.832;2023-04-08T01:33:11;102335.06;;;8.97;100.00
69667;BME280;66534;52.370;4.832;2023-04-08T01:33:45;102333.19;;;9.06;100.00
69667;BME280;66534;52.370;4.832;2023-04-08T01:34:17;102342.84;;;9.04;100.00
69667;BME280;66534;52.370;4.832;2023-04-08T01:34:50;102351.63;;;9.00;100.00
69667;BME280;66534;52.370;4.832;2023-04-08T01:35:21;102342.09;;;8.95;100.00
69667;BME280;66534;52.370;4.832;2023-04-08T01:35:52;102336.88;;;8.92;100.00
69667;BME280;66534;52.370;4.832;2023-04-08T01:36:25;102341.22;;;8.95;100.00
69667;BME280;66534;52.370;4.832;2023-04-08T01:36:57;102342.09;;;8.95;100.00
69667;BME280;66534;52.370;4.832;2023-04-08T01:37:29;102341.38;;;8.83;100.00
69667;BME280;66534;52.370;4.832;2023-04-08T01:38:01;102345.09;;;8.63;100.00
69667;BME280;66534;52.370;4.832;2023-04-08T01:38:35;102337.91;;;8.81;100.00
69667;BME280;66534;52.370;4.832;2023-04-08T01:39:07;102339.59;;;8.86;100.00
69667;BME280;66534;52.370;4.832;2023-04-08T01:39:40;102346.44;;;8.93;100.00
69667;BME280;66534;52.370;4.832;2023-04-08T01:40:11;102336.06;;;8.89;100.00
69667;BME280;66534;52.370;4.832;2023-04-08T01:40:42;102335.97;;;8.93;100.00
69667;BME280;66534;52.370;4.832;2023-04-08T01:41:16;102334.50;;;8.76;100.00
69667;BME280;66534;52.370;4.832;2023-04-08T01:41:48;102337.03;;;8.80;100.00
69667;BME280;66534;52.370;4.832;2023-04-08T01:42:23;102343.13;;;8.82;100.00
69667;BME280;66534;52.370;4.832;2023-04-08T01:42:56;102337.91;;;8.81;100.00
69667;BME280;66534;52.370;4.832;2023-04-08T01:43:28;102343.16;;;8.78;100.00
69667;BME280;66534;52.370;4.832;2023-04-08T01:44:01;102344.00;;;8.83;100.00
69667;BME280;66534;52.370;4.832;2023-04-08T01:44:33;102348.25;;;8.91;100.00
69667;BME280;66534;52.370;4.832;2023-04-08T01:45:05;102335.22;;;8.87;100.00
69667;BME280;66534;52.370;4.832;2023-04-08T01:45:38;102343.91;;;8.89;100.00
69667;BME280;66534;52.370;4.832;2023-04-08T01:46:09;102342.88;;;9.01;100.00
69667;BME280;66534;52.370;4.832;2023-04-08T01:46:41;102334.03;;;9.09;100.00
69667;BME280;66534;52.370;4.832;2023-04-08T01:47:12;102340.19;;;9.05;100.00
69667;BME280;66534;52.370;4.832;2023-04-08T01:47:44;102335.84;;;9.03;100.00
69667;BME280;66534;52.370;4.832;2023-04-08T01:48:18;102342.91;;;8.97;100.00
69667;BME280;66534;52.370;4.832;2023-04-08T01:48:49;102342.91;;;8.99;100.00
69667;BME280;66534;52.370;4.832;2023-04-08T01:49:21;102338.47;;;9.03;100.00
69667;BME280;66534;52.370;4.832;2023-04-08T01:49:53;102341.88;;;9.09;100.00
69667;BME280;66534;52.370;4.832;2023-04-08T01:50:25;102348.19;;;8.94;100.00
69667;BME280;66534;52.370;4.832;2023-04-08T01:50:56;102337.84;;;8.85;100.00
69667;BME280;66534;52.370;4.832;2023-04-08T01:51:29;102341.28;;;8.90;100.00
69667;BME280;66534;52.370;4.832;2023-04-08T01:52:00;102345.53;;;8.97;100.00
69667;BME280;66534;52.370;4.832;2023-04-08T01:52:33;102345.66;;;8.88;100.00
69667;BME280;66534;52.370;4.832;2023-04-08T01:53:05;102352.59;;;8.92;100.00
69667;BME280;66534;52.370;4.832;2023-04-08T01:53:38;102349.16;;;8.87;100.00
69667;BME280;66534;52.370;4.832;2023-04-08T01:54:09;102344.75;;;8.89;100.00
69667;BME280;66534;52.370;4.832;2023-04-08T01:54:39;102346.66;;;8.80;100.00
69667;BME280;66534;52.370;4.832;2023-04-08T01:55:10;102349.22;;;8.81;100.00
69667;BME280;66534;52.370;4.832;2023-04-08T01:55:41;102345.00;;;8.74;100.00
69667;BME280;66534;52.370;4.832;2023-04-08T01:56:12;102345.75;;;8.81;100.00
69667;BME280;66534;52.370;4.832;2023-04-08T01:56:44;102346.69;;;8.77;100.00
69667;BME280;66534;52.370;4.832;2023-04-08T01:57:21;102354.53;;;8.77;100.00
69667;BME280;66534;52.370;4.832;2023-04-08T01:57:53;102350.97;;;8.81;100.00
69667;BME280;66534;52.370;4.832;2023-04-08T01:58:30;102355.50;;;8.69;100.00
69667;BME280;66534;52.370;4.832;2023-04-08T01:59:09;102352.91;;;8.69;100.00
69667;BME280;66534;52.370;4.832;2023-04-08T01:59:42;102351.44;;;8.45;100.00
69667;BME280;66534;52.370;4.832;2023-04-08T02:00:24;102349.84;;;8.28;100.00
69667;BME280;66534;52.370;4.832;2023-04-08T02:00:58;102356.72;;;8.41;100.00
69667;BME280;66534;52.370;4.832;2023-04-08T02:01:29;102354.03;;;8.48;100.00
69667;BME280;66534;52.370;4.832;2023-04-08T02:02:01;102360.00;;;8.58;100.00
69667;BME280;66534;52.370;4.832;2023-04-08T02:02:35;102357.56;;;8.40;100.00
69667;BME280;66534;52.370;4.832;2023-04-08T02:03:07;102356.56;;;8.52;100.00
69667;BME280;66534;52.370;4.832;2023-04-08T02:03:42;102355.66;;;8.57;100.00
69667;BME280;66534;52.370;4.832;2023-04-08T02:04:15;102358.13;;;8.68;100.00
69667;BME280;66534;52.370;4.832;2023-04-08T02:04:45;102357.38;;;8.57;100.00
69667;BME280;66534;52.370;4.832;2023-04-08T02:05:16;102353.97;;;8.52;100.00
69667;BME280;66534;52.370;4.832;2023-04-08T02:05:46;102357.47;;;8.51;100.00
69667;BME280;66534;52.370;4.832;2023-04-08T02:06:17;102356.63;;;8.47;100.00
69667;BME280;66534;52.370;4.832;2023-04-08T02:06:47;102357.47;;;8.51;100.00
69667;BME280;66534;52.370;4.832;2023-04-08T02:07:37;102352.56;;;8.20;100.00
69667;BME280;66534;52.370;4.832;2023-04-08T02:08:07;102367.47;;;8.09;100.00
69667;BME280;66534;52.370;4.832;2023-04-08T02:08:37;102362.25;;;8.06;100.00
69667;BME280;66534;52.370;4.832;2023-04-08T02:09:08;102354.19;;;8.27;100.00
69667;BME280;66534;52.370;4.832;2023-04-08T02:09:38;102362.19;;;8.13;100.00
69667;BME280;66534;52.370;4.832;2023-04-08T02:10:09;102362.31;;;8.03;100.00
69667;BME280;66534;52.370;4.832;2023-04-08T02:10:40;102365.03;;;7.89;100.00
69667;BME280;66534;52.370;4.832;2023-04-08T02:11:11;102363.38;;;7.80;100.00
69667;BME280;66534;52.370;4.832;2023-04-08T02:11:41;102361.56;;;7.85;100.00
69667;BME280;66534;52.370;4.832;2023-04-08T02:12:12;102361.56;;;7.85;100.00
69667;BME280;66534;52.370;4.832;2023-04-08T02:12:43;102364.13;;;7.93;100.00
69667;BME280;66534;52.370;4.832;2023-04-08T02:13:13;102366.75;;;7.94;100.00
69667;BME280;66534;52.370;4.832;2023-04-08T02:13:44;102356.31;;;7.91;100.00
69667;BME280;66534;52.370;4.832;2023-04-08T02:14:15;102368.31;;;8.12;100.00
69667;BME280;66534;52.370;4.832;2023-04-08T02:14:45;102356.22;;;8.01;100.00
69667;BME280;66534;52.370;4.832;2023-04-08T02:15:16;102359.69;;;8.04;100.00
69667;BME280;66534;52.370;4.832;2023-04-08T02:15:50;102352.53;;;8.21;100.00
69667;BME280;66534;52.370;4.832;2023-04-08T02:16:29;102353.06;;;8.54;100.00
69667;BME280;66534;52.370;4.832;2023-04-08T02:17:10;102354.63;;;8.70;100.00
69667;BME280;66534;52.370;4.832;2023-04-08T02:17:44;102352.97;;;8.63;100.00
69667;BME280;66534;52.370;4.832;2023-04-08T02:18:20;102359.13;;;8.56;100.00
69667;BME280;66534;52.370;4.832;2023-04-08T02:19:58;102360.09;;;8.47;100.00
69667;BME280;66534;52.370;4.832;2023-04-08T02:20:06;102360.91;;;8.53;100.00
69667;BME280;66534;52.370;4.832;2023-04-08T02:20:42;102356.59;;;8.53;100.00
69667;BME280;66534;52.370;4.832;2023-04-08T02:21:15;102361.91;;;8.45;100.00
69667;BME280;66534;52.370;4.832;2023-04-08T02:21:49;102360.38;;;8.18;100.00
69667;BME280;66534;52.370;4.832;2023-04-08T02:22:28;102360.28;;;8.28;100.00
69667;BME280;66534;52.370;4.832;2023-04-08T02:23:09;102359.34;;;8.36;100.00
69667;BME280;66534;52.370;4.832;2023-04-08T02:23:48;102367.09;;;8.47;100.00
69667;BME280;66534;52.370;4.832;2023-04-08T02:24:20;102362.75;;;8.46;100.00
69667;BME280;66534;52.370;4.832;2023-04-08T02:24:51;102360.00;;;8.57;100.00
69667;BME280;66534;52.370;4.832;2023-04-08T02:25:23;102355.56;;;8.63;100.00
69667;BME280;66534;52.370;4.832;2023-04-08T02:25:55;102363.47;;;8.59;100.00
69667;BME280;66534;52.370;4.832;2023-04-08T02:26:25;102361.75;;;8.58;100.00
69667;BME280;66534;52.370;4.832;2023-04-08T02:26:56;102360.13;;;8.46;100.00
69667;BME280;66534;52.370;4.832;2023-04-08T02:27:27;102361.56;;;8.71;100.00
69667;BME280;66534;52.370;4.832;2023-04-08T02:27:58;102363.31;;;8.72;100.00
69667;BME280;66534;52.370;4.832;2023-04-08T02:28:32;102358.09;;;8.71;100.00
69667;BME280;66534;52.370;4.832;2023-04-08T02:29:04;102358.00;;;8.77;100.00
69667;BME280;66534;52.370;4.832;2023-04-08T02:29:36;102359.91;;;8.64;100.00
69667;BME280;66534;52.370;4.832;2023-04-08T02:30:10;102363.34;;;8.71;100.00
69667;BME280;66534;52.370;4.832;2023-04-08T02:30:43;102365.03;;;8.75;100.00
69667;BME280;66534;52.370;4.832;2023-04-08T02:31:20;102357.91;;;8.85;100.00
69667;BME280;66534;52.370;4.832;2023-04-08T02:31:50;102363.19;;;8.83;100.00
69667;BME280;66534;52.370;4.832;2023-04-08T02:32:22;102367.75;;;8.64;100.00
69667;BME280;66534;52.370;4.832;2023-04-08T02:32:54;102370.47;;;8.58;100.00
69667;BME280;66534;52.370;4.832;2023-04-08T02:33:27;102366.13;;;8.57;100.00
69667;BME280;66534;52.370;4.832;2023-04-08T02:33:58;102371.13;;;8.76;100.00
69667;BME280;66534;52.370;4.832;2023-04-08T02:34:29;102369.38;;;8.76;100.00
69667;BME280;66534;52.370;4.832;2023-04-08T02:35:00;102368.66;;;8.63;100.00
69667;BME280;66534;52.370;4.832;2023-04-08T02:35:33;102368.88;;;8.43;100.00
69667;BME280;66534;52.370;4.832;2023-04-08T02:36:05;102368.81;;;8.50;100.00
69667;BME280;66534;52.370;4.832;2023-04-08T02:36:36;102363.06;;;8.15;100.00
69667;BME280;66534;52.370;4.832;2023-04-08T02:37:09;102371.69;;;8.23;100.00
69667;BME280;66534;52.370;4.832;2023-04-08T02:37:41;102373.28;;;8.38;100.00
69667;BME280;66534;52.370;4.832;2023-04-08T02:38:15;102377.28;;;8.71;100.00
69667;BME280;66534;52.370;4.832;2023-04-08T02:38:48;102372.22;;;8.58;100.00
69667;BME280;66534;52.370;4.832;2023-04-08T02:39:19;102373.91;;;8.62;100.00
69667;BME280;66534;52.370;4.832;2023-04-08T02:39:50;102368.41;;;8.82;100.00
69667;BME280;66534;52.370;4.832;2023-04-08T02:40:21;102372.59;;;8.96;100.00
69667;BME280;66534;52.370;4.832;2023-04-08T02:40:56;102373.44;;;8.98;100.00
69667;BME280;66534;52.370;4.832;2023-04-08T02:41:28;102375.31;;;8.89;100.00
69667;BME280;66534;52.370;4.832;2023-04-08T02:41:59;102375.53;;;8.69;100.00
69667;BME280;66534;52.370;4.832;2023-04-08T02:42:29;102378.47;;;8.43;100.00
69667;BME280;66534;52.370;4.832;2023-04-08T02:43:00;102372.31;;;8.50;100.00
69667;BME280;66534;52.370;4.832;2023-04-08T02:43:30;102376.47;;;8.65;100.00
69667;BME280;66534;52.370;4.832;2023-04-08T02:44:01;102373.03;;;8.63;100.00
69667;BME280;66534;52.370;4.832;2023-04-08T02:44:31;102374.56;;;8.78;100.00
69667;BME280;66534;52.370;4.832;2023-04-08T02:45:02;102374.69;;;8.70;100.00
69667;BME280;66534;52.370;4.832;2023-04-08T02:45:51;102376.50;;;8.63;100.00
69667;BME280;66534;52.370;4.832;2023-04-08T02:46:21;102380.81;;;8.67;100.00
69667;BME280;66534;52.370;4.832;2023-04-08T02:46:52;102375.69;;;8.58;100.00
69667;BME280;66534;52.370;4.832;2023-04-08T02:47:22;102369.63;;;8.55;100.00
69667;BME280;66534;52.370;4.832;2023-04-08T02:47:53;102380.16;;;8.47;100.00
69667;BME280;66534;52.370;4.832;2023-04-08T02:48:23;102373.94;;;8.59;100.00
69667;BME280;66534;52.370;4.832;2023-04-08T02:48:53;102380.81;;;8.67;100.00
69667;BME280;66534;52.370;4.832;2023-04-08T02:49:24;102376.34;;;8.76;100.00
69667;BME280;66534;52.370;4.832;2023-04-08T02:49:55;102378.06;;;8.78;100.00
69667;BME280;66534;52.370;4.832;2023-04-08T02:50:25;102373.59;;;8.88;100.00
69667;BME280;66534;52.370;4.832;2023-04-08T02:50:56;102384.22;;;8.74;100.00
69667;BME280;66534;52.370;4.832;2023-04-08T02:51:26;102376.38;;;8.72;100.00